createdAt,value
2022-08-11T00:01:34.323Z,36.07
2022-08-11T00:04:07.460Z,36.54
2022-08-11T00:06:38.064Z,36.54
2022-08-11T00:09:20.069Z,37.08
2022-08-11T00:11:54.103Z,37.03
2022-08-11T00:14:37.848Z,37.13
2022-08-11T00:17:12.168Z,37.75
2022-08-11T00:20:13.978Z,37.66
2022-08-11T00:22:30.867Z,37.97
2022-08-11T00:25:02.348Z,37.66
2022-08-11T00:27:34.848Z,38.10
2022-08-11T00:30:02.784Z,38.17
2022-08-11T00:32:30.904Z,38.28
2022-08-11T00:35:53.665Z,38.69
2022-08-11T00:37:54.704Z,38.68
2022-08-11T00:40:47.672Z,39.27
2022-08-11T00:43:20.298Z,39.08
2022-08-11T00:46:16.763Z,39.15
2022-08-11T00:49:13.081Z,39.34
2022-08-11T00:52:21.991Z,38.47
2022-08-11T00:55:01.083Z,39.10
2022-08-11T00:57:51.614Z,38.93
2022-08-11T01:00:25.052Z,38.68
2022-08-11T01:02:52.112Z,39.18
2022-08-11T01:05:56.844Z,39.12
2022-08-11T01:08:35.929Z,38.97
2022-08-11T01:11:23.640Z,39.06
2022-08-11T01:14:33.714Z,38.70
2022-08-11T01:17:32.394Z,38.51
2022-08-11T01:20:47.639Z,38.95
2022-08-11T01:23:23.495Z,38.76
2022-08-11T01:26:28.027Z,38.22
2022-08-11T01:29:17.096Z,38.14
2022-08-11T01:32:10.183Z,38.45
2022-08-11T01:35:05.304Z,38.08
2022-08-11T01:37:58.245Z,38.18
2022-08-11T01:40:38.938Z,38.31
2022-08-11T01:44:02.204Z,38.61
2022-08-11T01:46:44.032Z,38.24
2022-08-11T01:50:08.228Z,38.39
2022-08-11T01:52:43.359Z,38.36
2022-08-11T01:55:58.100Z,38.61
2022-08-11T01:58:43.875Z,38.41
2022-08-11T02:01:26.646Z,38.21
2022-08-11T02:04:44.621Z,37.90
2022-08-11T02:07:43.229Z,37.75
2022-08-11T02:11:06.207Z,38.10
2022-08-11T02:13:52.848Z,38.37
2022-08-11T02:16:44.619Z,38.27
2022-08-11T02:19:36.253Z,38.24
2022-08-11T02:22:48.398Z,38.20
2022-08-11T02:25:31.875Z,38.14
2022-08-11T02:28:29.099Z,38.35
2022-08-11T02:32:25.626Z,38.71
2022-08-11T02:34:44.093Z,38.88
2022-08-11T02:37:45.353Z,38.44
2022-08-11T02:40:22.322Z,38.95
2022-08-11T02:42:55.509Z,38.39
2022-08-11T02:45:42.113Z,38.40
2022-08-11T02:48:33.726Z,38.52
2022-08-11T02:51:22.536Z,39.03
2022-08-11T02:54:07.767Z,38.74
2022-08-11T02:56:47.252Z,38.60
2022-08-11T02:59:48.705Z,38.86
2022-08-11T03:02:35.103Z,39.11
2022-08-11T03:05:13.839Z,39.02
2022-08-11T03:07:40.988Z,38.75
2022-08-11T03:10:22.279Z,39.74
2022-08-11T03:13:15.576Z,39.33
2022-08-11T03:16:04.232Z,39.68
2022-08-11T03:18:51.749Z,39.47
2022-08-11T03:21:58.410Z,39.41
2022-08-11T03:24:26.379Z,39.72
2022-08-11T03:27:15.075Z,39.79
2022-08-11T03:30:05.856Z,39.73
2022-08-11T03:33:31.807Z,39.78
2022-08-11T03:37:15.347Z,40.02
2022-08-11T03:39:52.617Z,39.80
2022-08-11T03:42:41.711Z,39.98
2022-08-11T03:45:28.738Z,40.12
2022-08-11T03:48:09.754Z,40.17
2022-08-11T03:50:58.721Z,40.17
2022-08-11T03:53:44.054Z,40.51
2022-08-11T03:56:11.687Z,39.89
2022-08-11T03:58:47.283Z,40.54
2022-08-11T04:01:44.693Z,40.77
2022-08-11T04:04:45.413Z,40.59
2022-08-11T04:07:37.415Z,40.79
2022-08-11T04:10:13.602Z,40.83
2022-08-11T04:13:17.944Z,40.70
2022-08-11T04:16:11.515Z,40.94
2022-08-11T04:19:17.248Z,41.06
2022-08-11T04:22:15.574Z,40.77
2022-08-11T04:25:22.667Z,40.69
2022-08-11T04:27:49.710Z,40.72
2022-08-11T04:30:27.737Z,40.83
2022-08-11T04:33:34.381Z,40.55
2022-08-11T04:36:09.746Z,40.91
2022-08-11T04:39:20.415Z,40.90
2022-08-11T04:42:32.001Z,40.74
2022-08-11T04:45:39.208Z,41.08
2022-08-11T04:48:53.277Z,40.54
2022-08-11T04:52:16.712Z,40.92
2022-08-11T04:55:06.503Z,40.84
2022-08-11T04:58:10.774Z,40.96
2022-08-11T05:01:27.007Z,40.95
2022-08-11T05:04:28.315Z,40.96
2022-08-11T05:07:20.288Z,41.36
2022-08-11T05:10:29.493Z,41.73
2022-08-11T05:13:21.546Z,41.29
2022-08-11T05:16:17.863Z,41.56
2022-08-11T05:19:16.238Z,41.08
2022-08-11T05:22:13.454Z,41.02
2022-08-11T05:25:10.189Z,41.12
2022-08-11T05:28:04.580Z,40.88
2022-08-11T05:30:51.589Z,41.49
2022-08-11T05:33:49.153Z,41.19
2022-08-11T05:36:31.391Z,41.18
2022-08-11T05:39:21.810Z,41.36
2022-08-11T05:42:29.953Z,40.75
2022-08-11T05:45:58.140Z,40.74
2022-08-11T05:48:39.210Z,40.81
2022-08-11T05:51:30.416Z,40.74
2022-08-11T05:54:28.211Z,40.94
2022-08-11T05:57:00.208Z,41.42
2022-08-11T05:59:29.425Z,41.12
2022-08-11T06:02:02.494Z,41.05
2022-08-11T06:04:30.422Z,41.25
2022-08-11T06:06:59.433Z,41.15
2022-08-11T06:09:38.973Z,41.17
2022-08-11T06:12:19.295Z,41.14
2022-08-11T06:14:49.681Z,41.01
2022-08-11T06:17:24.379Z,41.05
2022-08-11T06:20:07.147Z,41.03
2022-08-11T06:22:35.444Z,41.40
2022-08-11T06:25:05.063Z,41.52
2022-08-11T06:27:35.719Z,40.81
2022-08-11T06:30:14.004Z,40.95
2022-08-11T06:32:46.738Z,41.38
2022-08-11T06:35:30.331Z,40.85
2022-08-11T06:38:16.425Z,41.90
2022-08-11T06:41:26.781Z,41.83
2022-08-11T06:44:51.830Z,41.02
2022-08-11T06:47:21.093Z,41.19
2022-08-11T06:50:07.732Z,41.39
2022-08-11T06:52:37.041Z,40.53
2022-08-11T06:55:55.542Z,40.43
2022-08-11T06:58:48.509Z,40.45
2022-08-11T07:01:24.940Z,40.49
2022-08-11T07:04:03.048Z,40.43
2022-08-11T07:06:41.630Z,40.11
2022-08-11T07:10:02.911Z,40.43
2022-08-11T07:13:01.833Z,40.03
2022-08-11T07:16:12.485Z,40.07
2022-08-11T07:18:53.036Z,40.02
2022-08-11T07:22:02.821Z,40.02
2022-08-11T07:25:08.686Z,40.17
2022-08-11T07:28:15.427Z,39.98
2022-08-11T07:30:43.550Z,40.09
2022-08-11T07:34:05.565Z,40.59
2022-08-11T07:36:05.406Z,40.14
2022-08-11T07:38:47.385Z,40.05
2022-08-11T07:41:16.876Z,39.92
2022-08-11T07:43:49.293Z,40.07
2022-08-11T07:46:36.964Z,39.94
2022-08-11T07:49:24.940Z,39.94
2022-08-11T07:52:12.799Z,39.34
2022-08-11T07:54:41.877Z,39.58
2022-08-11T07:58:08.723Z,39.05
2022-08-11T08:00:40.248Z,39.54
2022-08-11T08:03:27.389Z,39.14
2022-08-11T08:06:35.513Z,38.72
2022-08-11T08:09:27.484Z,38.72
2022-08-11T08:12:15.728Z,39.39
2022-08-11T08:15:08.929Z,39.07
2022-08-11T08:18:09.886Z,39.08
2022-08-11T08:21:09.780Z,39.27
2022-08-11T08:23:38.738Z,39.26
2022-08-11T08:26:31.399Z,39.40
2022-08-11T08:29:22.354Z,39.36
2022-08-11T08:32:11.044Z,38.47
2022-08-11T08:34:43.707Z,38.69
2022-08-11T08:37:16.057Z,37.98
2022-08-11T08:40:06.616Z,38.03
2022-08-11T08:42:45.407Z,37.19
2022-08-11T08:45:16.544Z,35.08
2022-08-11T08:47:53.577Z,33.08
2022-08-11T08:50:27.993Z,32.49
2022-08-11T08:53:06.007Z,33.16
2022-08-11T08:55:35.627Z,33.50
2022-08-11T08:58:03.157Z,32.61
2022-08-11T09:00:44.001Z,33.53
2022-08-11T09:03:38.908Z,32.67
2022-08-11T09:06:09.794Z,32.75
2022-08-11T09:08:40.988Z,35.83
2022-08-11T09:11:30.810Z,36.07
2022-08-11T09:14:03.214Z,36.36
2022-08-11T09:16:39.501Z,38.28
2022-08-11T09:19:11.192Z,38.38
2022-08-11T09:21:48.236Z,39.92
2022-08-11T09:24:40.170Z,39.27
2022-08-11T09:27:08.746Z,38.96
2022-08-11T09:29:39.042Z,40.79
2022-08-11T09:32:07.423Z,39.71
2022-08-11T09:34:36.902Z,40.64
2022-08-11T09:37:28.476Z,39.87
2022-08-11T09:40:33.789Z,40.89
2022-08-11T09:43:25.546Z,40.96
2022-08-11T09:45:57.896Z,43.44
2022-08-11T09:48:27.627Z,41.49
2022-08-11T09:50:59.159Z,41.39
2022-08-11T09:53:35.711Z,41.51
2022-08-11T09:56:33.886Z,41.94
2022-08-11T09:59:04.060Z,43.24
2022-08-11T10:01:36.207Z,43.82
2022-08-11T10:04:15.680Z,44.37
2022-08-11T10:07:05.538Z,44.79
2022-08-11T10:09:59.641Z,43.31
2022-08-11T10:12:35.290Z,43.50
2022-08-11T10:15:23.644Z,43.65
2022-08-11T10:18:15.914Z,43.50
2022-08-11T10:20:45.685Z,43.58
2022-08-11T10:23:32.608Z,43.79
2022-08-11T10:26:18.686Z,44.13
2022-08-11T10:29:09.869Z,43.60
2022-08-11T10:31:57.426Z,43.61
2022-08-11T10:34:29.149Z,45.63
2022-08-11T10:36:58.137Z,45.68
2022-08-11T10:39:27.386Z,45.91
2022-08-11T10:42:21.023Z,46.83
2022-08-11T10:45:25.143Z,45.62
2022-08-11T10:47:55.746Z,46.10
2022-08-11T10:50:43.177Z,43.54
2022-08-11T10:53:29.276Z,43.11
2022-08-11T10:56:17.758Z,40.65
2022-08-11T10:58:52.191Z,41.39
2022-08-11T11:01:26.119Z,41.05
2022-08-11T11:03:59.104Z,42.52
2022-08-11T11:06:56.753Z,42.40
2022-08-11T11:09:35.333Z,43.38
2022-08-11T11:12:43.813Z,43.01
2022-08-11T11:15:31.991Z,40.13
2022-08-11T11:18:09.542Z,40.54
2022-08-11T11:20:47.344Z,35.15
2022-08-11T11:23:18.852Z,38.53
2022-08-11T11:26:11.334Z,37.69
2022-08-11T11:28:56.759Z,37.99
2022-08-11T11:31:48.111Z,37.91
2022-08-11T11:35:09.175Z,37.00
2022-08-11T11:37:40.570Z,37.77
2022-08-11T11:40:14.099Z,37.04
2022-08-11T11:42:44.121Z,37.81
2022-08-11T11:45:22.806Z,39.84
2022-08-11T11:47:54.777Z,38.46
2022-08-11T11:50:35.007Z,40.10
2022-08-11T11:53:06.035Z,36.90
2022-08-11T11:55:34.453Z,39.00
2022-08-11T11:58:22.838Z,36.68
2022-08-11T12:01:10.939Z,37.47
2022-08-11T12:03:39.845Z,35.55
2022-08-11T12:06:09.718Z,34.31
2022-08-11T12:08:37.950Z,37.14
2022-08-11T12:11:27.996Z,37.77
2022-08-11T12:14:02.346Z,37.30
2022-08-11T12:16:32.981Z,38.34
2022-08-11T12:19:11.851Z,37.85
2022-08-11T12:22:04.146Z,37.88
2022-08-11T12:24:52.880Z,36.84
2022-08-11T12:27:24.232Z,37.10
2022-08-11T12:30:11.548Z,37.47
2022-08-11T12:32:43.682Z,37.50
2022-08-11T12:35:14.620Z,38.14
2022-08-11T12:37:47.894Z,38.35
2022-08-11T12:41:11.928Z,39.56
2022-08-11T12:43:57.225Z,39.83
2022-08-11T12:46:33.188Z,38.42
2022-08-11T12:49:33.296Z,39.07
2022-08-11T12:52:15.515Z,39.53
2022-08-11T12:55:13.523Z,38.18
2022-08-11T12:58:06.436Z,38.97
2022-08-11T13:00:52.616Z,38.47
2022-08-11T13:03:39.682Z,39.34
2022-08-11T13:06:08.011Z,38.96
2022-08-11T13:08:38.423Z,39.96
2022-08-11T13:11:25.500Z,40.16
2022-08-11T13:14:15.378Z,37.65
2022-08-11T13:17:04.383Z,37.69
2022-08-11T13:19:33.231Z,38.83
2022-08-11T13:22:02.833Z,37.09
2022-08-11T13:24:34.412Z,37.38
2022-08-11T13:27:03.958Z,36.51
2022-08-11T13:29:32.716Z,35.96
2022-08-11T13:32:00.996Z,35.03
2022-08-11T13:34:33.100Z,34.56
2022-08-11T13:37:04.679Z,34.69
2022-08-11T13:39:35.862Z,32.67
2022-08-11T13:42:05.964Z,32.77
2022-08-11T13:44:38.861Z,33.30
2022-08-11T13:47:09.175Z,31.95
2022-08-11T13:49:39.682Z,30.42
2022-08-11T13:52:17.647Z,29.89
2022-08-11T13:54:48.994Z,27.26
2022-08-11T13:58:08.875Z,27.60
2022-08-11T14:00:23.590Z,27.02
2022-08-11T14:02:58.366Z,27.48
2022-08-11T14:05:45.908Z,27.93
2022-08-11T14:08:37.584Z,27.36
2022-08-11T14:12:22.741Z,26.66
2022-08-11T14:14:22.975Z,27.35
2022-08-11T14:16:53.446Z,29.32
2022-08-11T14:19:26.548Z,31.05
2022-08-11T14:22:11.769Z,31.69
2022-08-11T14:24:49.698Z,31.35
2022-08-11T14:28:32.596Z,32.05
2022-08-11T14:30:29.297Z,31.32
2022-08-11T14:33:00.500Z,29.46
2022-08-11T14:35:44.422Z,30.93
2022-08-11T14:38:15.014Z,31.96
2022-08-11T14:41:03.177Z,33.85
2022-08-11T14:44:04.865Z,34.53
2022-08-11T14:46:57.783Z,37.10
2022-08-11T14:49:26.601Z,39.58
2022-08-11T14:51:57.939Z,39.92
2022-08-11T14:54:45.859Z,39.99
2022-08-11T14:57:18.262Z,40.28
2022-08-11T15:00:08.425Z,40.46
2022-08-11T15:02:58.478Z,38.46
2022-08-11T15:05:26.809Z,40.60
2022-08-11T15:07:58.951Z,38.45
2022-08-11T15:10:27.096Z,40.70
2022-08-11T15:12:54.682Z,34.60
2022-08-11T15:15:42.509Z,35.15
2022-08-11T15:18:17.005Z,37.51
2022-08-11T15:21:03.213Z,38.83
2022-08-11T15:23:50.212Z,41.08
2022-08-11T15:26:43.237Z,42.33
2022-08-11T15:29:30.820Z,43.23
2022-08-11T15:32:17.754Z,43.98
2022-08-11T15:35:08.040Z,43.71
2022-08-11T15:37:37.833Z,44.18
2022-08-11T15:40:48.181Z,45.31
2022-08-11T15:43:34.114Z,46.42
2022-08-11T15:46:08.299Z,47.49
2022-08-11T15:48:47.593Z,47.81
2022-08-11T15:51:17.774Z,46.31
2022-08-11T15:53:58.788Z,46.10
2022-08-11T15:56:29.584Z,45.21
2022-08-11T15:59:41.683Z,45.04
2022-08-11T16:02:16.385Z,46.21
2022-08-11T16:04:46.935Z,45.69
2022-08-11T16:07:16.887Z,45.95
2022-08-11T16:09:54.024Z,46.10
2022-08-11T16:12:30.612Z,45.18
2022-08-11T16:15:23.662Z,46.38
2022-08-11T16:17:56.632Z,46.99
2022-08-11T16:20:25.176Z,47.23
2022-08-11T16:23:02.014Z,46.54
2022-08-11T16:27:01.642Z,46.28
2022-08-11T16:28:23.985Z,46.04
2022-08-11T16:30:56.745Z,46.09
2022-08-11T16:33:50.259Z,46.88
2022-08-11T16:36:34.262Z,46.22
2022-08-11T16:39:03.025Z,45.69
2022-08-11T16:41:51.685Z,44.94
2022-08-11T16:44:40.441Z,45.11
2022-08-11T16:47:11.716Z,45.23
2022-08-11T16:49:53.271Z,45.57
2022-08-11T16:52:22.266Z,44.55
2022-08-11T16:54:49.721Z,44.61
2022-08-11T16:57:43.940Z,45.03
2022-08-11T17:00:16.720Z,44.31
2022-08-11T17:03:12.545Z,44.71
2022-08-11T17:06:08.803Z,44.96
2022-08-11T17:09:05.403Z,45.51
2022-08-11T17:11:57.325Z,45.04
2022-08-11T17:14:37.300Z,43.40
2022-08-11T17:17:30.244Z,39.98
2022-08-11T17:20:41.340Z,38.56
2022-08-11T17:23:13.237Z,38.51
2022-08-11T17:26:03.729Z,39.73
2022-08-11T17:28:34.712Z,40.95
2022-08-11T17:31:22.465Z,40.83
2022-08-11T17:34:11.108Z,39.27
2022-08-11T17:36:43.169Z,39.45
2022-08-11T17:39:17.772Z,40.13
2022-08-11T17:42:04.354Z,38.49
2022-08-11T17:44:52.370Z,37.76
2022-08-11T17:47:39.279Z,37.68
2022-08-11T17:50:16.743Z,36.56
2022-08-11T17:53:05.193Z,35.89
2022-08-11T17:55:53.891Z,38.78
2022-08-11T17:58:40.548Z,43.27
2022-08-11T18:01:10.750Z,44.68
2022-08-11T18:03:40.912Z,44.19
2022-08-11T18:06:12.765Z,43.65
2022-08-11T18:09:07.036Z,44.03
2022-08-11T18:12:11.131Z,44.79
2022-08-11T18:15:03.341Z,43.40
2022-08-11T18:17:53.575Z,43.56
2022-08-11T18:20:40.116Z,42.97
2022-08-11T18:23:43.376Z,43.16
2022-08-11T18:26:38.331Z,43.48
2022-08-11T18:29:26.846Z,43.37
2022-08-11T18:32:21.291Z,44.28
2022-08-11T18:35:11.505Z,44.08
2022-08-11T18:38:04.588Z,44.50
2022-08-11T18:40:51.850Z,44.79
2022-08-11T18:43:46.290Z,45.16
2022-08-11T18:46:36.894Z,43.97
2022-08-11T18:50:01.920Z,44.61
2022-08-11T18:52:37.896Z,43.73
2022-08-11T18:55:32.557Z,43.67
2022-08-11T18:58:21.846Z,43.04
2022-08-11T19:01:09.002Z,42.76
2022-08-11T19:03:56.257Z,42.71
2022-08-11T19:06:56.983Z,40.87
2022-08-11T19:09:44.594Z,44.43
2022-08-11T19:12:31.924Z,45.74
2022-08-11T19:15:21.638Z,45.83
2022-08-11T19:18:08.647Z,46.27
2022-08-11T19:20:56.265Z,45.98
2022-08-11T19:23:55.395Z,47.33
2022-08-11T19:26:43.067Z,47.70
2022-08-11T19:30:04.865Z,47.82
2022-08-11T19:32:38.454Z,47.66
2022-08-11T19:35:25.622Z,46.98
2022-08-11T19:38:13.992Z,47.47
2022-08-11T19:41:01.241Z,46.90
2022-08-11T19:43:49.357Z,47.62
2022-08-11T19:46:38.805Z,47.75
2022-08-11T19:49:26.034Z,46.79
2022-08-11T19:52:12.818Z,47.15
2022-08-11T19:55:04.234Z,47.18
2022-08-11T19:57:50.953Z,46.43
2022-08-11T20:00:38.581Z,44.63
2022-08-11T20:03:27.989Z,45.28
2022-08-11T20:06:16.540Z,45.82
2022-08-11T20:09:04.509Z,46.42
2022-08-11T20:11:56.001Z,46.89
2022-08-11T20:14:47.948Z,46.71
2022-08-11T20:17:34.424Z,46.30
2022-08-11T20:20:24.044Z,46.32
2022-08-11T20:23:12.769Z,45.38
2022-08-11T20:26:27.774Z,46.46
2022-08-11T20:29:13.290Z,46.14
2022-08-11T20:32:01.652Z,46.49
2022-08-11T20:34:59.602Z,46.29
2022-08-11T20:37:51.229Z,46.59
2022-08-11T20:40:42.869Z,47.52
2022-08-11T20:44:06.674Z,48.30
2022-08-11T20:46:44.148Z,47.04
2022-08-11T20:49:45.941Z,46.33
2022-08-11T20:52:39.712Z,46.39
2022-08-11T20:55:46.398Z,46.61
2022-08-11T21:01:45.888Z,45.88
2022-08-11T21:04:32.811Z,45.70
2022-08-11T21:07:28.377Z,44.98
2022-08-11T21:10:23.385Z,46.03
2022-08-11T21:13:26.140Z,44.71
2022-08-11T21:16:27.279Z,47.33
2022-08-11T21:19:55.037Z,46.90
2022-08-11T21:22:35.968Z,46.78
2022-08-11T21:25:25.884Z,47.13
2022-08-11T21:28:12.697Z,47.50
2022-08-11T21:30:59.181Z,47.43
2022-08-11T21:33:51.432Z,46.76
2022-08-11T21:36:39.625Z,46.94
2022-08-11T21:39:28.984Z,47.81
2022-08-11T21:42:16.701Z,47.55
2022-08-11T21:45:04.145Z,47.06
2022-08-11T21:47:56.066Z,47.60
2022-08-11T21:50:48.048Z,47.10
2022-08-11T21:53:34.391Z,46.39
2022-08-11T21:56:22.060Z,46.72
2022-08-11T21:59:16.923Z,47.28
2022-08-11T22:02:05.378Z,46.43
2022-08-11T22:04:55.154Z,46.11
2022-08-11T22:07:42.623Z,45.78
2022-08-11T22:10:41.898Z,45.03
2022-08-11T22:13:34.201Z,43.40
2022-08-11T22:16:24.383Z,42.55
2022-08-11T22:19:16.860Z,42.42
2022-08-11T22:22:06.191Z,41.91
2022-08-11T22:24:53.980Z,41.75
2022-08-11T22:27:41.465Z,41.39
2022-08-11T22:30:33.755Z,41.07
2022-08-11T22:33:28.759Z,40.87
2022-08-11T22:36:16.649Z,40.40
2022-08-11T22:39:04.842Z,40.81
2022-08-11T22:41:53.053Z,40.83
2022-08-11T22:44:38.773Z,40.27
2022-08-11T22:47:38.417Z,40.28
2022-08-11T22:50:29.038Z,38.91
2022-08-11T22:53:16.520Z,37.23
2022-08-11T22:56:02.849Z,35.04
2022-08-11T22:58:49.782Z,35.05
2022-08-11T23:01:37.586Z,33.40
2022-08-11T23:04:25.648Z,34.01
2022-08-11T23:07:12.213Z,34.28
2022-08-11T23:09:59.326Z,34.36
2022-08-11T23:12:46.924Z,34.45
2022-08-11T23:15:33.199Z,33.60
2022-08-11T23:18:21.185Z,33.57
2022-08-11T23:21:07.574Z,33.42
2022-08-11T23:23:54.341Z,33.65
2022-08-11T23:26:42.410Z,33.84
2022-08-11T23:29:30.330Z,33.77
2022-08-11T23:32:16.291Z,34.10
2022-08-11T23:35:37.883Z,33.64
2022-08-11T23:38:15.321Z,33.78
2022-08-11T23:41:01.016Z,33.96
2022-08-11T23:43:46.458Z,33.77
2022-08-11T23:46:31.945Z,34.15
2022-08-11T23:49:22.550Z,33.67
2022-08-11T23:52:11.239Z,33.44
2022-08-11T23:54:57.103Z,34.00
2022-08-11T23:57:47.801Z,34.36
